createdAt,value
2017-02-20T11:26:12.123Z,15
2017-02-20T11:27:25.993Z,15
2017-02-20T11:28:39.301Z,15
2017-02-20T11:30:06.569Z,15
2017-02-20T11:31:19.511Z,15
2017-02-20T11:32:32.784Z,15
2017-02-20T11:34:00.036Z,15
2017-02-20T11:35:27.295Z,15
2017-02-20T11:36:40.578Z,15
2017-02-20T11:37:53.879Z,15
2017-02-20T11:39:06.612Z,15
2017-02-20T11:40:19.326Z,15
2017-02-20T11:41:46.592Z,15
2017-02-20T11:42:59.320Z,15
2017-02-20T11:45:39.889Z,15
2017-02-20T11:47:07.487Z,20
2017-02-20T11:48:19.646Z,20
2017-02-20T11:49:32.368Z,20
2017-02-20T11:50:59.627Z,20
2017-02-20T11:52:12.932Z,20
2017-02-20T11:53:25.678Z,20
2017-02-20T11:54:52.368Z,20
2017-02-20T11:56:05.657Z,20
2017-02-20T11:57:18.367Z,20
2017-02-20T11:58:31.666Z,20
2017-02-20T11:59:44.383Z,20
2017-02-20T12:00:57.105Z,20
2017-02-20T12:02:10.135Z,20
2017-02-20T12:03:23.427Z,20
2017-02-20T12:04:36.959Z,20
2017-02-20T12:05:49.715Z,20
2017-02-20T12:07:02.437Z,20
2017-02-20T12:08:15.932Z,20
2017-02-20T12:09:29.249Z,20
2017-02-20T12:12:23.791Z,20
2017-02-20T12:13:51.213Z,20
2017-02-20T12:15:04.748Z,20
2017-02-20T12:16:17.717Z,20
2017-02-20T12:17:31.218Z,20
2017-02-20T12:18:44.748Z,20
2017-02-20T12:19:58.338Z,20
2017-02-20T12:21:25.904Z,20
2017-02-20T12:22:39.579Z,20
2017-02-20T12:23:53.140Z,20
2017-02-20T12:25:06.465Z,20
2017-02-20T12:26:33.747Z,20
2017-02-20T12:27:47.015Z,20
2017-02-20T12:30:26.611Z,20
2017-02-20T12:31:39.884Z,25
2017-02-20T12:32:52.585Z,25
2017-02-20T12:34:05.317Z,25
2017-02-20T12:35:18.024Z,25
2017-02-20T12:36:31.328Z,25
2017-02-20T12:37:44.630Z,30
2017-02-20T12:38:57.348Z,30
2017-02-20T12:40:10.640Z,30
2017-02-20T12:42:50.091Z,35
2017-02-20T12:44:03.385Z,40
2017-02-20T12:45:29.992Z,40
2017-02-20T12:46:43.139Z,40
2017-02-20T12:48:10.285Z,45
2017-02-20T12:49:23.440Z,45
2017-02-20T12:50:36.605Z,50
2017-02-20T12:51:49.747Z,50
2017-02-20T12:53:02.351Z,55
2017-02-20T12:54:14.380Z,55
2017-02-20T12:55:26.972Z,55
2017-02-20T12:56:39.586Z,55
2017-02-20T12:57:52.742Z,55
2017-02-20T12:59:05.907Z,55
2017-02-20T13:00:19.353Z,55
2017-02-20T13:01:32.512Z,55
2017-02-20T13:02:45.680Z,55
2017-02-20T13:03:58.862Z,60
2017-02-20T13:06:52.917Z,60
2017-02-20T13:08:06.062Z,60
2017-02-20T13:09:18.642Z,60
2017-02-20T13:10:31.461Z,60
2017-02-20T13:11:58.608Z,60
2017-02-20T13:13:11.194Z,65
2017-02-20T13:14:24.346Z,65
2017-02-20T13:17:04.106Z,65
2017-02-20T13:18:16.693Z,65
2017-02-20T13:19:29.852Z,65
2017-02-20T13:20:57.020Z,65
2017-02-20T13:22:10.198Z,65
2017-02-20T13:23:23.385Z,70
2017-02-20T13:24:35.976Z,70
2017-02-20T13:26:03.443Z,70
2017-02-20T13:27:16.614Z,70
2017-02-20T13:28:29.795Z,70
2017-02-20T13:29:42.945Z,70
2017-02-20T13:30:56.436Z,70
2017-02-20T13:32:09.597Z,70
2017-02-20T13:33:22.754Z,70
2017-02-20T13:34:34.802Z,70
2017-02-20T13:36:01.166Z,70
2017-02-20T13:37:28.339Z,70
2017-02-20T13:38:41.526Z,70
2017-02-20T13:39:54.698Z,70
2017-02-20T13:41:08.098Z,70
2017-02-20T13:42:20.159Z,70
2017-02-20T13:43:33.439Z,70
2017-02-20T13:44:46.669Z,70
2017-02-20T13:45:59.848Z,70
2017-02-20T13:47:13.008Z,70
2017-02-20T13:48:25.593Z,70
2017-02-20T13:49:38.746Z,70
2017-02-20T13:50:51.892Z,70
2017-02-20T13:52:04.148Z,70
2017-02-20T13:53:17.297Z,75
2017-02-20T13:54:44.459Z,75
2017-02-20T13:55:57.052Z,75
2017-02-20T13:57:10.493Z,75
2017-02-20T13:58:23.108Z,75
2017-02-20T13:59:36.267Z,70
2017-02-20T14:00:49.431Z,70
2017-02-20T14:02:02.582Z,75
2017-02-20T14:03:15.174Z,75
2017-02-20T14:04:28.320Z,75
2017-02-20T14:05:54.913Z,75
2017-02-20T14:07:08.070Z,75
2017-02-20T14:08:20.671Z,75
2017-02-20T14:09:33.832Z,75
2017-02-20T14:10:46.979Z,75
2017-02-20T14:12:00.131Z,75
2017-02-20T14:13:13.279Z,75
2017-02-20T14:14:26.431Z,75
2017-02-20T14:15:39.601Z,75
2017-02-20T14:17:06.759Z,75
2017-02-20T14:18:33.919Z,75
2017-02-20T14:21:13.662Z,75
2017-02-20T14:22:26.823Z,75
2017-02-20T14:23:39.999Z,75
2017-02-20T14:24:53.155Z,75
2017-02-20T14:26:06.319Z,75
2017-02-20T14:27:18.935Z,70
2017-02-20T14:28:31.531Z,70
2017-02-20T14:29:44.705Z,75
2017-02-20T14:30:57.299Z,70
2017-02-20T14:32:10.464Z,70
2017-02-20T14:33:23.618Z,70
2017-02-20T14:34:36.759Z,75
2017-02-20T14:35:49.388Z,75
2017-02-20T14:37:02.559Z,75
2017-02-20T14:38:14.605Z,75
2017-02-20T14:39:27.752Z,75
2017-02-20T14:40:40.934Z,75
2017-02-20T14:42:08.101Z,75
2017-02-20T14:43:21.265Z,75
2017-02-20T14:46:01.027Z,75
2017-02-20T14:47:13.640Z,75
2017-02-20T14:48:26.792Z,75
2017-02-20T14:49:39.951Z,75
2017-02-20T14:50:53.096Z,70
2017-02-20T14:52:05.138Z,75
2017-02-20T14:53:17.739Z,75
2017-02-20T14:54:30.912Z,70
2017-02-20T14:55:43.826Z,70
2017-02-20T14:56:56.412Z,70
2017-02-20T14:58:09.597Z,70
2017-02-20T14:59:22.759Z,75
2017-02-20T15:00:36.131Z,70
2017-02-20T15:02:03.295Z,75
2017-02-20T15:03:15.904Z,75
2017-02-20T15:04:29.083Z,75
2017-02-20T15:05:56.555Z,75
2017-02-20T15:07:08.634Z,75
2017-02-20T15:08:21.258Z,75
2017-02-20T15:09:34.414Z,75
2017-02-20T15:10:47.576Z,75
2017-02-20T15:12:14.731Z,75
2017-02-20T15:13:27.918Z,75
2017-02-20T15:14:40.520Z,70
2017-02-20T15:15:53.670Z,70
2017-02-20T15:17:20.564Z,65
2017-02-20T15:18:33.728Z,65
2017-02-20T15:19:46.895Z,70
2017-02-20T15:21:00.044Z,65
2017-02-20T15:22:12.653Z,65
2017-02-20T15:23:25.817Z,65
2017-02-20T15:24:38.967Z,60
2017-02-20T15:25:51.569Z,60
2017-02-20T15:27:04.935Z,60
2017-02-20T15:28:17.519Z,60
2017-02-20T15:29:30.664Z,60
2017-02-20T15:30:43.827Z,60
2017-02-20T15:31:56.983Z,60
2017-02-20T15:33:10.340Z,60
2017-02-20T15:34:23.512Z,55
2017-02-20T15:35:36.673Z,55
2017-02-20T15:36:49.823Z,55
2017-02-20T15:38:02.454Z,55
2017-02-20T15:39:15.607Z,55
2017-02-20T15:40:28.774Z,55
2017-02-20T15:41:41.942Z,50
2017-02-20T15:42:55.094Z,50
2017-02-20T15:44:07.694Z,50
2017-02-20T15:45:20.852Z,50
2017-02-20T15:46:34.011Z,50
2017-02-20T15:47:47.163Z,50
2017-02-20T15:49:00.529Z,50
2017-02-20T15:50:13.696Z,45
2017-02-20T15:51:26.868Z,45
2017-02-20T15:52:53.495Z,45
2017-02-20T15:54:05.528Z,45
2017-02-20T15:55:18.700Z,40
2017-02-20T15:56:45.853Z,40
2017-02-20T15:57:59.004Z,40
2017-02-20T16:01:20.795Z,40
2017-02-20T16:02:33.930Z,40
2017-02-20T16:03:47.072Z,40
2017-02-20T16:05:00.272Z,40
2017-02-20T16:07:40.578Z,40
2017-02-20T16:08:53.740Z,40
2017-02-20T16:10:05.778Z,40
2017-02-20T16:11:18.364Z,40
2017-02-20T16:12:31.545Z,40
2017-02-20T16:13:44.702Z,40
2017-02-20T16:14:57.850Z,40
2017-02-20T16:16:10.462Z,40
2017-02-20T16:17:23.611Z,40
2017-02-20T16:18:36.779Z,35
2017-02-20T16:19:49.947Z,30
2017-02-20T16:21:03.310Z,40
2017-02-20T16:22:16.459Z,40
2017-02-20T16:23:29.617Z,40
2017-02-20T16:24:42.779Z,40
2017-02-20T16:25:55.362Z,40
2017-02-20T16:27:07.951Z,25
2017-02-20T16:28:20.558Z,25
2017-02-20T16:29:33.699Z,25
2017-02-20T16:30:46.857Z,25
2017-02-20T16:31:58.923Z,25
2017-02-20T16:33:12.091Z,25
2017-02-20T16:34:25.234Z,20
2017-02-20T16:35:38.383Z,20
2017-02-20T16:36:51.748Z,20
2017-02-20T16:38:04.365Z,20
2017-02-20T16:39:17.533Z,20
2017-02-20T16:40:44.679Z,20
2017-02-20T16:41:57.834Z,20
2017-02-20T16:43:25.013Z,25
2017-02-20T16:44:38.152Z,25
2017-02-20T16:45:51.302Z,25
2017-02-20T16:47:04.798Z,30
2017-02-20T16:48:17.433Z,30
2017-02-20T16:49:30.580Z,30
2017-02-20T16:50:43.729Z,30
2017-02-20T16:51:56.879Z,40
2017-02-20T16:53:10.029Z,40
2017-02-20T16:54:23.173Z,40
2017-02-20T16:55:35.768Z,40
2017-02-20T16:57:01.797Z,40
2017-02-20T16:58:14.375Z,35
2017-02-20T17:00:54.101Z,35
2017-02-20T17:02:07.244Z,35
2017-02-20T17:03:19.835Z,35
2017-02-20T17:04:32.987Z,35
2017-02-20T17:05:45.588Z,35
2017-02-20T17:07:12.745Z,35
2017-02-20T17:08:25.888Z,35
2017-02-20T17:09:39.039Z,35
2017-02-20T17:10:52.193Z,35
2017-02-20T17:12:33.549Z,35
2017-02-20T17:13:46.699Z,35
2017-02-20T17:15:13.854Z,40
2017-02-20T17:16:27.014Z,40
2017-02-20T17:17:40.156Z,35
2017-02-20T17:19:07.308Z,35
2017-02-20T17:20:19.908Z,40
2017-02-20T17:21:47.064Z,40
2017-02-20T17:23:00.211Z,40
2017-02-20T17:24:13.378Z,40
2017-02-20T17:25:25.969Z,35
2017-02-20T17:26:39.114Z,35
2017-02-20T17:27:52.133Z,35
2017-02-20T17:29:05.288Z,35
2017-02-20T17:30:17.323Z,40
2017-02-20T17:31:30.464Z,35
2017-02-20T17:32:57.611Z,40
2017-02-20T17:34:10.211Z,35
2017-02-20T17:36:48.863Z,35
2017-02-20T17:38:02.236Z,40
2017-02-20T17:39:29.398Z,40
2017-02-20T17:40:42.549Z,45
2017-02-20T17:42:09.696Z,35
2017-02-20T17:43:22.032Z,40
2017-02-20T17:44:48.619Z,40
2017-02-20T17:46:01.217Z,40
2017-02-20T17:47:28.383Z,40
2017-02-20T17:48:41.569Z,40
2017-02-20T17:49:54.739Z,40
2017-02-20T17:51:07.883Z,45
2017-02-20T17:52:20.494Z,40
2017-02-20T17:53:33.642Z,40
2017-02-20T17:54:46.802Z,40
2017-02-20T17:55:59.377Z,45
2017-02-20T17:57:11.963Z,45
2017-02-20T17:58:39.130Z,45
2017-02-20T17:59:52.395Z,45
2017-02-20T18:01:05.116Z,40
2017-02-20T18:02:18.444Z,40
2017-02-20T18:03:31.745Z,40
2017-02-20T18:04:59.027Z,40
2017-02-20T18:06:25.716Z,40
2017-02-20T18:07:39.007Z,40
2017-02-20T18:09:05.720Z,40
2017-02-20T18:10:18.763Z,35
2017-02-20T18:11:32.041Z,35
2017-02-20T18:12:45.316Z,40
2017-02-20T18:13:58.021Z,40
2017-02-20T18:15:10.737Z,40
2017-02-20T18:16:24.006Z,35
2017-02-20T18:19:04.629Z,30
2017-02-20T18:20:17.068Z,30
2017-02-20T18:21:43.786Z,35
2017-02-20T18:22:57.059Z,30
2017-02-20T18:24:10.354Z,30
2017-02-20T18:25:23.270Z,30
2017-02-20T18:26:35.985Z,30
2017-02-20T18:27:49.290Z,30
2017-02-20T18:29:02.573Z,30
2017-02-20T18:30:15.302Z,30
2017-02-20T18:31:28.575Z,30
2017-02-20T18:32:41.863Z,30
2017-02-20T18:33:55.132Z,25
2017-02-20T18:35:08.629Z,20
2017-02-20T18:36:22.110Z,20
2017-02-20T18:39:01.539Z,20
2017-02-20T18:40:14.834Z,20
2017-02-20T18:41:28.414Z,20
2017-02-20T18:42:55.676Z,20
2017-02-20T18:45:36.090Z,20
2017-02-20T18:46:48.677Z,20
2017-02-20T18:48:01.268Z,20
2017-02-20T18:49:14.417Z,20
2017-02-20T18:50:41.009Z,20
2017-02-20T18:52:08.153Z,20
2017-02-20T18:53:35.311Z,15
2017-02-20T18:54:48.454Z,20
2017-02-20T18:56:01.067Z,20
2017-02-20T18:57:14.201Z,15
2017-02-20T18:58:27.348Z,15
2017-02-20T18:59:40.482Z,15
2017-02-20T19:00:53.636Z,15
2017-02-20T19:02:20.235Z,15
2017-02-20T19:03:33.392Z,15
2017-02-20T19:04:46.545Z,15
2017-02-20T19:05:59.688Z,15
2017-02-20T19:07:12.848Z,15
2017-02-20T19:08:24.868Z,15
2017-02-20T19:09:38.001Z,20
2017-02-20T19:10:51.141Z,15
2017-02-20T19:12:04.286Z,15
2017-02-20T19:15:12.237Z,20
2017-02-20T19:16:25.380Z,20
2017-02-20T19:17:37.976Z,20
2017-02-20T19:18:50.568Z,20
2017-02-20T19:20:03.751Z,25
2017-02-20T19:21:16.890Z,25
2017-02-20T19:22:29.471Z,25
2017-02-20T19:23:42.623Z,25
2017-02-20T19:24:55.780Z,25
2017-02-20T19:26:08.353Z,20
2017-02-20T19:27:20.960Z,20
2017-02-20T19:28:34.102Z,20
2017-02-20T19:29:46.806Z,20
2017-02-20T19:31:14.067Z,20
2017-02-20T19:32:27.346Z,20
2017-02-20T19:33:40.633Z,25
2017-02-20T19:34:53.913Z,40
2017-02-20T19:36:21.167Z,30
2017-02-20T19:37:34.459Z,25
2017-02-20T19:39:01.727Z,30
2017-02-20T19:40:15.010Z,30
2017-02-20T19:41:28.286Z,25
2017-02-20T19:42:41.575Z,25
2017-02-20T19:43:54.880Z,20
2017-02-20T19:45:08.182Z,20
2017-02-20T19:46:21.506Z,30
2017-02-20T19:47:34.206Z,25
2017-02-20T19:48:47.485Z,30
2017-02-20T19:50:00.757Z,25
2017-02-20T19:51:14.043Z,20
2017-02-20T19:52:27.337Z,20
2017-02-20T19:53:40.635Z,20
2017-02-20T19:54:53.957Z,20
2017-02-20T19:56:07.226Z,20
2017-02-20T19:57:20.496Z,20
2017-02-20T19:58:33.798Z,20
2017-02-20T19:59:47.077Z,15
2017-02-20T20:01:00.521Z,15
2017-02-20T20:02:13.811Z,20
2017-02-20T20:03:27.098Z,20
2017-02-20T20:04:39.817Z,20
2017-02-20T20:05:53.109Z,20
2017-02-20T20:07:05.862Z,20
2017-02-20T20:08:32.549Z,20
2017-02-20T20:09:45.832Z,25
2017-02-20T20:10:59.141Z,15
2017-02-20T20:12:12.444Z,15
2017-02-20T20:13:25.171Z,15
2017-02-20T20:14:38.316Z,15
2017-02-20T20:15:50.927Z,15
2017-02-20T20:17:04.085Z,15
2017-02-20T20:18:30.692Z,15
2017-02-20T20:19:57.858Z,15
2017-02-20T20:21:10.443Z,15
2017-02-20T20:22:23.598Z,15
2017-02-20T20:23:36.753Z,15
2017-02-20T20:24:49.897Z,15
2017-02-20T20:26:03.047Z,10
2017-02-20T20:27:16.196Z,10
2017-02-20T20:28:28.984Z,10
2017-02-20T20:29:56.124Z,10
2017-02-20T20:31:23.266Z,10
2017-02-20T20:32:35.891Z,15
2017-02-20T20:34:03.366Z,15
2017-02-20T20:36:42.539Z,10
2017-02-20T20:37:55.683Z,10
2017-02-20T20:39:08.820Z,10
2017-02-20T20:40:21.968Z,10
2017-02-20T20:41:35.116Z,10
2017-02-20T20:42:48.260Z,5
2017-02-20T20:44:01.408Z,5
2017-02-20T20:45:14.562Z,5
2017-02-20T20:46:41.713Z,5
2017-02-20T20:47:54.854Z,5
2017-02-20T20:49:07.454Z,5
2017-02-20T20:50:20.051Z,5
2017-02-20T20:51:33.207Z,5
2017-02-20T20:52:46.365Z,5
2017-02-20T20:53:58.944Z,5
2017-02-20T20:55:26.345Z,5
2017-02-20T20:56:39.513Z,5
2017-02-20T20:57:52.105Z,5
2017-02-20T20:59:04.705Z,5
2017-02-20T21:00:17.876Z,5
2017-02-20T21:01:30.466Z,5
2017-02-20T21:02:43.624Z,5
2017-02-20T21:03:56.772Z,5
2017-02-20T21:08:03.664Z,5
2017-02-20T21:09:16.260Z,5
2017-02-20T21:10:29.404Z,5
2017-02-20T21:11:56.552Z,5
2017-02-20T21:13:09.683Z,5
2017-02-20T21:14:22.270Z,5
2017-02-20T21:15:34.855Z,5
2017-02-20T21:16:47.465Z,5
2017-02-20T21:19:40.101Z,0
2017-02-20T21:21:20.690Z,0
2017-02-20T21:22:33.265Z,0
2017-02-20T21:23:46.409Z,0
2017-02-20T21:24:59.006Z,0
2017-02-20T21:26:12.353Z,0
2017-02-20T21:27:24.944Z,0
2017-02-20T21:28:37.547Z,0
2017-02-20T21:29:50.677Z,0
2017-02-20T21:31:04.120Z,0
2017-02-20T21:32:16.147Z,0
2017-02-20T21:33:43.287Z,0
2017-02-20T21:34:56.431Z,0
2017-02-20T21:36:09.569Z,0
2017-02-20T21:37:22.153Z,0
2017-02-20T21:38:49.318Z,0
2017-02-20T21:41:28.688Z,0
2017-02-20T21:42:41.870Z,0
2017-02-20T21:43:55.004Z,0
2017-02-20T21:45:08.276Z,0
2017-02-20T21:46:21.745Z,0
2017-02-20T21:47:35.030Z,0
2017-02-20T21:48:48.323Z,0
2017-02-20T21:50:01.039Z,0
2017-02-20T21:51:14.338Z,0
2017-02-20T21:52:27.043Z,0
2017-02-20T21:53:40.342Z,0
2017-02-20T21:54:53.626Z,0
2017-02-20T21:56:06.904Z,0
2017-02-20T21:57:20.389Z,0
2017-02-20T21:58:33.680Z,0
2017-02-20T21:59:46.982Z,0
2017-02-20T22:01:00.283Z,0
2017-02-20T22:02:13.562Z,0
2017-02-20T22:03:26.293Z,0
2017-02-20T22:04:39.573Z,0
2017-02-20T22:05:52.858Z,0
2017-02-20T22:07:06.161Z,0
2017-02-20T22:08:19.090Z,0
2017-02-20T22:09:32.392Z,0
2017-02-20T22:10:45.672Z,0
2017-02-20T22:13:25.669Z,0
2017-02-20T22:14:38.956Z,0
2017-02-20T22:15:52.252Z,0
2017-02-20T22:17:05.527Z,0
2017-02-20T22:18:18.258Z,0
2017-02-20T22:19:30.411Z,0
2017-02-20T22:20:43.685Z,0
2017-02-20T22:21:57.004Z,0
2017-02-20T22:23:10.305Z,0
2017-02-20T22:24:22.444Z,0
2017-02-20T22:25:35.734Z,0
2017-02-20T22:26:49.031Z,0
2017-02-20T22:28:01.749Z,0
2017-02-20T22:29:15.050Z,0
2017-02-20T22:30:28.332Z,0
2017-02-20T22:31:41.612Z,0
2017-02-20T22:32:54.904Z,0
2017-02-20T22:34:08.178Z,0
2017-02-20T22:35:21.491Z,0
2017-02-20T22:36:34.800Z,0
2017-02-20T22:38:02.057Z,0
2017-02-20T22:39:14.769Z,0
2017-02-20T22:40:28.078Z,0
2017-02-20T22:41:41.370Z,0
2017-02-20T22:42:54.656Z,0
2017-02-20T22:44:07.436Z,0
2017-02-20T22:45:20.721Z,0
2017-02-20T22:46:33.448Z,0
2017-02-20T22:47:46.740Z,0
2017-02-20T22:49:00.028Z,0
2017-02-20T22:50:13.302Z,0
2017-02-20T22:51:26.893Z,0
2017-02-20T22:52:40.172Z,0
2017-02-20T22:53:53.489Z,0
2017-02-20T22:55:06.782Z,0
2017-02-20T22:56:20.064Z,0
2017-02-20T22:57:32.771Z,0
2017-02-20T22:58:46.058Z,0
2017-02-20T22:59:59.348Z,0
2017-02-20T23:01:26.811Z,0
2017-02-20T23:02:40.089Z,0
2017-02-20T23:03:53.379Z,0
2017-02-20T23:05:06.680Z,0
2017-02-20T23:06:19.960Z,0
2017-02-20T23:07:32.095Z,0
2017-02-20T23:08:45.387Z,0
2017-02-20T23:09:58.693Z,0
2017-02-20T23:12:38.666Z,0
2017-02-20T23:13:51.970Z,0
2017-02-20T23:15:04.019Z,0
2017-02-20T23:16:16.607Z,0
2017-02-20T23:17:30.058Z,0
2017-02-20T23:18:42.644Z,0
2017-02-20T23:19:55.783Z,0
2017-02-20T23:21:08.920Z,0
2017-02-20T23:22:21.519Z,0
2017-02-20T23:23:34.651Z,0
2017-02-20T23:24:47.797Z,0
2017-02-20T23:26:00.936Z,0
2017-02-20T23:27:14.082Z,0
2017-02-20T23:28:41.426Z,0
2017-02-20T23:29:54.019Z,0
2017-02-20T23:31:06.625Z,0
2017-02-20T23:32:19.205Z,0
2017-02-20T23:33:32.354Z,0
2017-02-20T23:34:45.511Z,0
2017-02-20T23:35:58.093Z,0
2017-02-20T23:37:10.694Z,0
2017-02-20T23:38:23.276Z,0
2017-02-20T23:39:36.428Z,0
2017-02-20T23:40:49.577Z,0
2017-02-20T23:42:02.737Z,0
2017-02-20T23:43:15.909Z,0
2017-02-20T23:44:28.499Z,0
2017-02-20T23:45:41.978Z,0
2017-02-20T23:46:55.144Z,0
2017-02-20T23:48:08.287Z,0
2017-02-20T23:49:21.452Z,0
2017-02-20T23:50:34.592Z,0
2017-02-20T23:51:47.730Z,0
2017-02-20T23:53:00.871Z,0
2017-02-20T23:54:14.007Z,0
2017-02-20T23:55:27.153Z,0
2017-02-20T23:56:40.525Z,0
2017-02-20T23:59:20.801Z,0
